Time;durP1;ratioP1;P1;durP2;ratioP2;P2;SDS_P1;SDS_P2;PMS_P1;PMS_P2;Temp;Humidity;BMP_temperature;BMP_pressure;BME280_temperature;BME280_humidity;BME280_pressure;Samples;Min_cycle;Max_cycle;Signal;HPM_P1;HPM_P2
2021/04/13 00:01:19;;;;;;;48.25;29.15;;;;;;;10.24;47.11;99223.75;114281;1206;103172;-70
2021/04/13 00:04:05;;;;;;;48.97;28.37;;;;;;;10.20;47.00;99228.41;114425;1206;103056;-70
2021/04/13 00:06:39;;;;;;;46.10;29.40;;;;;;;10.19;47.30;99239.16;114542;1206;103091;-70
2021/04/13 00:09:08;;;;;;;49.17;29.73;;;;;;;10.18;47.16;99234.80;115833;1205;101162;-69
2021/04/13 00:11:36;;;;;;;45.95;30.95;;;;;;;10.14;47.15;99239.48;115834;1205;101075;-70
2021/04/13 00:14:08;;;;;;;49.70;31.00;;;;;;;10.07;47.26;99244.35;115819;1205;101114;-69
2021/04/13 00:16:36;;;;;;;49.35;30.30;;;;;;;10.05;47.58;99248.91;115879;1206;101175;-70
2021/04/13 00:19:06;;;;;;;45.65;27.90;;;;;;;10.05;47.41;99248.91;115724;1205;102498;-70
2021/04/13 00:21:44;;;;;;;53.25;33.95;;;;;;;10.01;47.56;99257.21;114447;1206;103089;-70
2021/04/13 00:24:18;;;;;;;48.80;32.40;;;;;;;9.86;47.27;99262.59;114506;1206;103184;-70
2021/04/13 00:26:56;;;;;;;51.30;33.65;;;;;;;9.68;47.44;99262.88;114507;1206;103133;-71
2021/04/13 00:29:30;;;;;;;52.65;32.25;;;;;;;9.56;47.79;99271.64;114498;1206;103168;-72
2021/04/13 00:32:01;;;;;;;44.70;28.43;;;;;;;9.49;47.99;99271.20;114521;1206;103146;-71
2021/04/13 00:34:44;;;;;;;50.43;32.10;;;;;;;9.38;48.00;99271.88;114473;1206;103158;-71
2021/04/13 00:37:27;;;;;;;42.60;25.50;;;;;;;9.29;48.15;99279.58;114524;1206;103059;-71
2021/04/13 00:40:27;;;;;;;48.15;30.95;;;;;;;9.14;48.22;99286.72;114475;1206;103575;-70
2021/04/13 00:43:03;;;;;;;53.70;31.90;;;;;;;8.94;48.04;99278.23;114514;1206;103124;-71
2021/04/13 00:45:37;;;;;;;52.10;33.10;;;;;;;8.85;47.98;99268.19;114484;1206;103296;-73
2021/04/13 00:48:09;;;;;;;56.60;35.77;;;;;;;8.78;48.47;99268.57;114479;1206;103159;-69
2021/04/13 00:50:46;;;;;;;57.20;36.40;;;;;;;8.77;48.54;99253.60;114519;1206;103194;-70
2021/04/13 00:53:21;;;;;;;51.30;33.30;;;;;;;8.77;48.49;99239.47;114491;1206;103165;-71
2021/04/13 00:55:58;;;;;;;59.50;38.85;;;;;;;8.67;48.51;99241.86;114518;1206;103169;-73
2021/04/13 00:58:44;;;;;;;63.17;40.40;;;;;;;8.58;48.52;99240.63;114531;1206;103230;-71
2021/04/13 01:01:20;;;;;;;58.05;37.30;;;;;;;8.46;49.02;99238.70;114454;1206;103576;-72
2021/04/13 01:04:04;;;;;;;60.65;39.50;;;;;;;8.36;49.10;99246.37;114486;1206;103098;-72
2021/04/13 01:06:38;;;;;;;64.60;39.90;;;;;;;8.25;49.18;99252.33;114495;1206;103093;-71
2021/04/13 01:09:25;;;;;;;;;;;;;;;8.22;50.07;99243.69;114544;1214;103267;-72
2021/04/13 01:12:19;;;;;;;65.35;40.35;;;;;;;8.17;49.39;99228.91;114523;1206;103542;-74
2021/04/13 01:14:51;;;;;;;62.70;40.70;;;;;;;8.11;49.45;99208.11;114490;1206;103059;-75
2021/04/13 01:17:23;;;;;;;66.10;42.50;;;;;;;8.05;49.43;99213.78;114538;1206;103108;-74
2021/04/13 01:20:12;;;;;;;65.85;41.85;;;;;;;7.99;49.46;99232.69;114439;1205;103514;-74
2021/04/13 01:22:56;;;;;;;69.40;43.20;;;;;;;7.94;49.51;99250.64;114535;1206;103066;-73
2021/04/13 01:25:33;;;;;;;56.77;36.17;;;;;;;7.88;49.42;99255.35;114525;1206;103088;-72
2021/04/13 01:28:18;;;;;;;63.70;39.80;;;;;;;7.81;49.82;99261.95;114501;1205;103479;-71
2021/04/13 01:34:43;;;;;;;53.75;34.15;;;;;;;7.74;49.86;99256.16;114501;1206;103200;-71
2021/04/13 01:43:12;;;;;;;64.35;40.75;;;;;;;7.62;49.98;99271.91;114522;1205;103095;-72
2021/04/13 01:45:43;;;;;;;64.90;40.85;;;;;;;7.57;49.91;99269.50;114522;1206;103152;-72
2021/04/13 01:48:17;;;;;;;66.40;42.70;;;;;;;7.51;50.31;99265.42;114484;1206;103136;-73
2021/04/13 01:50:58;;;;;;;69.10;41.80;;;;;;;7.42;50.35;99269.45;114498;1206;103172;-73
2021/04/13 01:53:37;;;;;;;65.50;40.10;;;;;;;7.36;50.67;99269.80;114494;1206;103085;-71
2021/04/13 01:56:20;;;;;;;67.60;42.30;;;;;;;7.37;50.57;99282.09;114506;1206;103078;-71
2021/04/13 01:59:13;;;;;;;66.70;38.60;;;;;;;7.38;50.93;99290.87;114532;1206;103121;-70
2021/04/13 02:01:52;;;;;;;61.00;39.43;;;;;;;7.29;50.89;99289.59;114502;1206;103078;-74
2021/04/13 02:04:38;;;;;;;59.60;37.30;;;;;;;7.24;50.89;99304.87;114555;1206;103075;-73
2021/04/13 02:10:26;;;;;;;59.45;35.55;;;;;;;7.09;50.94;99290.70;114483;1205;103037;-73
2021/04/13 02:13:05;;;;;;;56.83;34.10;;;;;;;7.07;51.36;99287.28;114531;1206;103149;-72
2021/04/13 02:15:48;;;;;;;57.20;36.10;;;;;;;7.06;50.97;99298.80;114528;1206;103085;-72
2021/04/13 02:18:49;;;;;;;57.85;35.60;;;;;;;7.02;51.23;99302.55;114549;1205;103056;-71
2021/04/13 02:21:35;;;;;;;52.15;30.50;;;;;;;6.93;51.13;99304.74;114502;1206;103060;-71
2021/04/13 02:24:18;;;;;;;56.30;33.15;;;;;;;6.78;51.28;99309.06;114482;1206;103545;-70
2021/04/13 02:26:51;;;;;;;54.50;30.60;;;;;;;6.71;51.44;99313.00;114526;1206;103213;-70
2021/04/13 02:29:32;;;;;;;52.77;32.27;;;;;;;6.66;51.91;99318.51;114502;1206;103092;-72
2021/04/13 02:32:14;;;;;;;48.65;28.10;;;;;;;6.64;51.81;99327.47;114547;1206;103133;-70
2021/04/13 02:34:53;;;;;;;55.05;30.70;;;;;;;6.59;51.74;99338.27;114523;1206;103122;-71
2021/04/13 02:37:47;;;;;;;55.50;31.10;;;;;;;6.53;51.73;99335.94;114491;1206;103130;-70
2021/04/13 02:40:28;;;;;;;49.53;27.80;;;;;;;6.43;52.06;99335.56;114513;1206;103056;-73
2021/04/13 02:43:01;;;;;;;55.03;31.37;;;;;;;6.36;51.73;99329.75;114509;1206;103082;-74
2021/04/13 02:45:37;;;;;;;52.50;32.17;;;;;;;6.34;52.19;99331.61;114524;1206;103050;-72
2021/04/13 02:48:17;;;;;;;49.10;28.10;;;;;;;6.34;52.00;99336.02;114524;1206;103289;-72
2021/04/13 02:50:51;;;;;;;55.25;30.70;;;;;;;6.30;52.12;99329.22;114478;1206;103088;-71
2021/04/13 02:53:39;;;;;;;56.90;30.40;;;;;;;6.23;52.24;99318.09;114538;1206;103076;-71
2021/04/13 02:56:14;;;;;;;55.20;29.20;;;;;;;6.16;52.20;99309.63;114529;1206;103117;-71
2021/04/13 02:59:09;;;;;;;49.40;26.60;;;;;;;6.07;52.37;99302.16;114528;1206;103098;-71
2021/04/13 03:02:06;;;;;;;55.25;29.30;;;;;;;5.99;52.78;99293.73;114480;1206;103060;-72
2021/04/13 03:04:44;;;;;;;;;;;;;;;5.93;53.25;99281.70;114424;1213;103181;-70
2021/04/13 03:07:19;;;;;;;54.50;28.05;;;;;;;5.86;52.86;99282.94;114405;1205;103088;-69
2021/04/13 03:09:50;;;;;;;52.45;29.30;;;;;;;5.87;52.89;99282.88;114478;1206;103088;-69
2021/04/13 03:12:22;;;;;;;47.57;27.07;;;;;;;5.87;52.82;99282.00;114558;1205;103158;-71
2021/04/13 03:14:55;;;;;;;55.13;30.83;;;;;;;5.87;52.86;99288.16;114523;1206;103053;-72
2021/04/13 03:17:31;;;;;;;50.35;28.10;;;;;;;5.86;52.89;99290.86;114496;1206;103252;-72
2021/04/13 03:20:09;;;;;;;48.87;27.97;;;;;;;5.85;53.03;99289.14;114505;1206;103699;-70
2021/04/13 03:22:40;;;;;;;50.05;28.40;;;;;;;5.82;52.88;99316.56;114401;1206;103475;-70
2021/04/13 03:25:13;;;;;;;53.85;28.85;;;;;;;5.77;53.23;99321.21;114553;1206;103698;-70
2021/04/13 03:27:45;;;;;;;47.40;26.08;;;;;;;5.72;53.46;99331.97;114512;1206;103062;-70
2021/04/13 03:30:26;;;;;;;48.97;27.37;;;;;;;5.70;53.30;99330.35;114511;1206;103057;-71
2021/04/13 03:33:12;;;;;;;39.60;20.90;;;;;;;5.70;53.59;99343.55;114482;1206;103544;-69
2021/04/13 03:35:41;;;;;;;40.50;21.03;;;;;;;5.65;53.29;99349.06;114312;1206;103127;-72
2021/04/13 03:38:12;;;;;;;;;;;;;;;5.61;53.29;99350.97;114297;1206;103056;-72
2021/04/13 03:40:48;;;;;;;34.20;16.75;;;;;;;5.60;53.85;99346.63;114530;1206;103066;-71
2021/04/13 03:43:24;;;;;;;35.40;18.03;;;;;;;5.59;53.18;99354.63;114385;1206;103092;-72
2021/04/13 03:46:02;;;;;;;36.10;18.80;;;;;;;5.53;53.61;99362.83;114692;1206;103079;-71
2021/04/13 03:48:34;;;;;;;34.45;17.15;;;;;;;5.45;53.40;99360.56;114480;1206;103059;-73
2021/04/13 03:51:15;;;;;;;34.90;19.40;;;;;;;5.40;53.90;99365.19;114491;1206;103066;-72
2021/04/13 03:53:46;;;;;;;33.10;19.20;;;;;;;5.39;53.92;99366.13;115860;1206;101555;-71
2021/04/13 03:56:17;;;;;;;30.53;15.30;;;;;;;5.38;53.48;99370.52;115067;1206;103085;-69
2021/04/13 03:59:00;;;;;;;28.30;14.00;;;;;;;5.37;53.81;99371.45;114231;1206;103162;-71
2021/04/13 04:01:32;;;;;;;26.40;14.23;;;;;;;5.33;53.93;99375.16;114223;1206;103233;-71
2021/04/13 04:04:03;;;;;;;28.10;13.80;;;;;;;5.30;53.72;99370.89;114285;1206;103089;-72
2021/04/13 04:06:52;;;;;;;22.90;11.00;;;;;;;5.28;53.97;99382.45;114237;1206;103206;-70
2021/04/13 04:09:28;;;;;;;23.80;11.60;;;;;;;5.24;54.12;99381.72;114364;1206;103044;-69
2021/04/13 04:12:00;;;;;;;23.15;11.65;;;;;;;5.21;54.31;99381.85;114501;1206;103082;-72
2021/04/13 04:14:30;;;;;;;21.25;10.15;;;;;;;5.19;53.85;99391.62;114455;1206;103194;-71
2021/04/13 04:17:14;;;;;;;22.27;10.33;;;;;;;5.16;54.14;99391.75;114475;1206;103159;-70
2021/04/13 04:20:08;;;;;;;20.90;10.50;;;;;;;5.12;54.27;99398.09;114466;1206;103181;-71
2021/04/13 04:22:54;;;;;;;20.70;9.65;;;;;;;5.07;54.12;99411.48;114461;1206;103155;-71
2021/04/13 04:25:42;;;;;;;17.20;7.70;;;;;;;5.04;54.61;99414.26;114448;1206;103161;-74
2021/04/13 04:28:34;;;;;;;18.77;8.10;;;;;;;5.02;54.33;99409.07;114438;1206;103172;-71
2021/04/13 04:31:20;;;;;;;14.00;7.00;;;;;;;4.98;54.84;99415.40;114514;1206;103158;-73
2021/04/13 04:33:47;;;;;;;14.85;6.40;;;;;;;4.96;54.97;99411.09;114391;1206;103130;-72
2021/04/13 04:36:43;;;;;;;12.60;5.60;;;;;;;4.96;54.78;99419.01;114291;1206;103166;-74
2021/04/13 04:39:35;;;;;;;14.77;6.40;;;;;;;4.89;54.60;99421.91;114450;1206;103184;-73
2021/04/13 04:42:29;;;;;;;15.57;6.60;;;;;;;4.89;54.63;99427.18;114458;1206;103208;-73
2021/04/13 04:45:44;;;;;;;13.17;6.00;;;;;;;4.88;54.79;99433.41;114442;1205;103165;-72
2021/04/13 04:48:28;;;;;;;13.25;5.85;;;;;;;4.82;55.36;99436.30;114218;1206;103165;-71
2021/04/13 04:51:21;;;;;;;;;;;;;;;4.80;54.86;99447.81;114486;1213;103222;-74
2021/04/13 04:53:51;;;;;;;17.90;7.10;;;;;;;4.74;55.23;99455.06;114479;1206;103078;-71
2021/04/13 04:56:18;;;;;;;16.47;6.73;;;;;;;4.70;55.42;99463.17;114479;1206;103113;-72
2021/04/13 04:58:45;;;;;;;17.30;7.10;;;;;;;4.63;55.51;99459.95;114464;1206;103100;-72
2021/04/13 05:01:12;;;;;;;16.48;6.98;;;;;;;4.64;55.23;99459.03;114376;1206;103308;-70
2021/04/13 05:03:42;;;;;;;15.85;6.55;;;;;;;4.59;55.00;99442.55;114413;1206;103105;-72
2021/04/13 05:06:11;;;;;;;12.50;5.70;;;;;;;4.53;55.56;99450.70;114475;1206;103159;-71
2021/04/13 05:08:38;;;;;;;14.40;5.60;;;;;;;4.50;55.62;99446.41;114496;1206;103328;-71
2021/04/13 05:11:15;;;;;;;14.30;5.65;;;;;;;4.49;55.11;99446.48;114487;1206;103108;-71
2021/04/13 05:13:45;;;;;;;13.80;5.80;;;;;;;4.45;55.71;99451.03;114481;1204;103082;-72
2021/04/13 05:16:13;;;;;;;14.60;6.20;;;;;;;4.44;55.30;99441.42;114428;1206;103206;-71
2021/04/13 05:18:40;;;;;;;13.27;5.63;;;;;;;4.40;55.51;99451.20;114438;1206;103085;-70
2021/04/13 05:21:08;;;;;;;15.30;5.80;;;;;;;4.39;55.71;99448.65;114462;1206;103056;-71
2021/04/13 05:23:35;;;;;;;12.85;5.50;;;;;;;4.34;55.75;99456.72;114542;1204;103092;-71
2021/04/13 05:26:04;;;;;;;15.20;6.65;;;;;;;4.31;55.57;99452.45;114375;1206;103155;-71
2021/04/13 05:28:32;;;;;;;15.40;6.60;;;;;;;4.29;56.40;99449.02;114410;1206;103056;-71
2021/04/13 05:30:59;;;;;;;16.00;7.00;;;;;;;4.28;56.60;99452.57;114396;1206;103587;-70
2021/04/13 05:33:27;;;;;;;15.65;6.80;;;;;;;4.28;55.93;99457.84;114441;1206;103152;-72
2021/04/13 05:35:55;;;;;;;17.75;7.40;;;;;;;4.32;55.98;99461.19;114475;1206;103082;-71
2021/04/13 05:38:25;;;;;;;16.05;6.15;;;;;;;4.30;56.34;99460.39;114472;1206;103172;-71
2021/04/13 05:40:53;;;;;;;15.80;6.50;;;;;;;4.28;56.27;99460.47;114433;1206;103162;-73
2021/04/13 05:43:21;;;;;;;15.60;6.80;;;;;;;4.28;56.36;99473.64;114473;1206;103547;-71
2021/04/13 05:45:49;;;;;;;19.60;7.45;;;;;;;4.28;56.02;99472.80;114446;1205;103152;-71
2021/04/13 05:48:17;;;;;;;17.85;7.70;;;;;;;4.28;56.78;99473.64;114493;1206;103047;-71
2021/04/13 05:50:46;;;;;;;18.00;7.70;;;;;;;4.30;56.15;99473.56;114473;1206;103165;-71
2021/04/13 05:53:14;;;;;;;16.70;7.80;;;;;;;4.34;56.78;99469.89;114472;1206;103178;-74
2021/04/13 05:55:41;;;;;;;20.00;8.40;;;;;;;4.35;57.02;99486.56;114422;1206;103153;-72
2021/04/13 05:58:18;;;;;;;19.40;8.90;;;;;;;4.35;56.79;99478.66;114462;1206;103590;-73
2021/04/13 06:00:49;;;;;;;20.55;9.00;;;;;;;4.36;56.45;99491.76;114334;1206;103098;-71
2021/04/13 06:03:20;;;;;;;20.60;9.30;;;;;;;4.37;56.20;99490.00;114090;1206;103171;-70
2021/04/13 06:05:48;;;;;;;21.43;9.43;;;;;;;4.39;56.75;99493.42;114294;1206;103102;-72
2021/04/13 06:08:16;;;;;;;23.90;9.50;;;;;;;4.41;56.37;99484.53;114401;1206;103614;-70
2021/04/13 06:10:43;;;;;;;24.30;10.60;;;;;;;4.41;57.29;99489.80;114401;1205;103111;-70
2021/04/13 06:13:10;;;;;;;21.15;10.00;;;;;;;4.41;57.03;99484.53;114430;1206;103079;-70
2021/04/13 06:15:37;;;;;;;24.90;10.50;;;;;;;4.41;56.55;99489.80;114473;1206;103079;-72
2021/04/13 06:18:04;;;;;;;24.50;10.50;;;;;;;4.44;56.87;99494.94;114448;1206;103092;-72
2021/04/13 06:20:33;;;;;;;23.00;11.60;;;;;;;4.47;57.47;99494.82;114483;1206;103060;-71
2021/04/13 06:23:01;;;;;;;24.45;10.95;;;;;;;4.47;57.38;99500.09;114457;1206;103081;-72
2021/04/13 06:25:32;;;;;;;22.10;11.03;;;;;;;4.49;57.06;99497.38;114488;1206;103108;-71
2021/04/13 06:28:00;;;;;;;23.80;10.75;;;;;;;4.53;57.38;99504.23;114467;1206;103062;-72
2021/04/13 06:30:28;;;;;;;22.80;10.70;;;;;;;4.55;56.90;99506.83;114417;1206;103079;-71
2021/04/13 06:33:00;;;;;;;21.10;9.50;;;;;;;4.56;56.88;99508.55;114470;1206;103548;-70
2021/04/13 06:35:29;;;;;;;24.90;10.90;;;;;;;4.56;57.17;99516.45;114425;1205;103165;-72
2021/04/13 06:38:04;;;;;;;22.60;10.35;;;;;;;4.57;57.60;99521.64;114492;1206;103052;-70
2021/04/13 06:40:53;;;;;;;23.40;10.30;;;;;;;4.60;57.44;99525.95;114481;1206;103191;-70
2021/04/13 06:43:58;;;;;;;19.55;9.20;;;;;;;4.59;57.40;99511.90;114413;1206;103165;-71
2021/04/13 06:47:03;;;;;;;22.70;11.00;;;;;;;4.61;56.83;99520.59;114468;1206;103082;-75
2021/04/13 06:49:55;;;;;;;23.30;10.70;;;;;;;4.60;57.62;99520.67;114436;1206;103095;-77
2021/04/13 06:52:40;;;;;;;18.73;8.50;;;;;;;4.62;57.05;99524.95;114401;1206;103117;-74
2021/04/13 06:55:52;;;;;;;18.45;7.65;;;;;;;4.52;56.88;99522.76;114459;1206;103261;-73
2021/04/13 06:58:46;;;;;;;14.50;6.30;;;;;;;4.39;57.23;99532.94;114086;1206;103098;-76
2021/04/13 07:01:28;;;;;;;14.70;6.30;;;;;;;4.32;57.49;99533.17;114353;1206;103082;-76
2021/04/13 07:04:12;;;;;;;13.35;5.35;;;;;;;4.21;56.79;99535.36;114300;1206;103153;-77
2021/04/13 07:06:59;;;;;;;13.00;5.50;;;;;;;4.12;57.49;99531.32;114205;1206;103739;-77
2021/04/13 07:09:31;;;;;;;11.15;5.00;;;;;;;4.11;57.34;99539.27;114290;1205;103220;-75
2021/04/13 07:12:12;;;;;;;13.70;5.50;;;;;;;4.04;57.45;99535.17;114172;1206;103198;-77
2021/04/13 07:14:39;;;;;;;16.15;6.60;;;;;;;3.94;57.05;99538.15;114434;1206;103236;-74
2021/04/13 07:17:21;;;;;;;13.70;5.25;;;;;;;3.91;57.60;99547.92;114413;1206;103209;-73
2021/04/13 07:19:59;;;;;;;17.20;7.40;;;;;;;3.81;57.46;99552.67;114428;1206;103200;-75
2021/04/13 07:22:39;;;;;;;16.60;6.90;;;;;;;3.74;57.71;99554.69;114420;1206;103200;-74
2021/04/13 07:25:19;;;;;;;19.00;7.40;;;;;;;3.72;57.58;99557.36;114327;1206;104678;-74
2021/04/13 07:27:58;;;;;;;16.50;7.10;;;;;;;3.71;58.20;99550.38;114293;1206;103248;-74
2021/04/13 07:30:46;;;;;;;17.50;7.40;;;;;;;3.73;57.60;99547.70;114297;1206;103079;-72
2021/04/13 07:33:28;;;;;;;15.40;6.30;;;;;;;3.64;58.05;99551.54;114234;1206;103153;-74
2021/04/13 07:36:05;;;;;;;19.35;7.50;;;;;;;3.55;58.03;99559.76;114175;1206;103146;-73
2021/04/13 07:38:44;;;;;;;16.70;7.40;;;;;;;3.53;58.10;99559.80;114225;1206;103146;-75
2021/04/13 07:41:22;;;;;;;16.20;6.90;;;;;;;3.55;58.31;99555.34;114111;1205;103230;-77
2021/04/13 07:43:57;;;;;;;19.10;8.10;;;;;;;3.58;58.36;99562.28;114318;1206;103081;-74
2021/04/13 07:46:42;;;;;;;18.90;8.30;;;;;;;3.60;58.37;99557.83;114213;1206;103248;-76
2021/04/13 07:49:15;;;;;;;19.60;8.67;;;;;;;3.61;58.50;99554.28;114327;1205;103264;-74
2021/04/13 07:51:45;;;;;;;17.80;7.90;;;;;;;3.66;58.79;99561.99;114248;1206;103839;-73
2021/04/13 07:54:38;;;;;;;19.60;8.90;;;;;;;3.67;58.49;99571.60;114259;1206;103136;-73
2021/04/13 07:57:37;;;;;;;17.70;8.10;;;;;;;3.68;58.11;99566.27;114192;1206;103096;-73
2021/04/13 08:00:07;;;;;;;16.90;7.65;;;;;;;3.67;58.08;99575.08;114258;1204;103078;-71
2021/04/13 08:02:34;;;;;;;19.35;8.25;;;;;;;3.70;59.05;99576.76;114185;1206;103198;-73
2021/04/13 08:05:10;;;;;;;17.45;8.15;;;;;;;3.74;58.82;99565.20;114315;1206;103137;-72
2021/04/13 08:07:59;;;;;;;14.85;7.25;;;;;;;3.79;59.18;99565.03;114384;1206;103120;-71
2021/04/13 08:10:41;;;;;;;18.50;8.40;;;;;;;3.80;58.63;99566.74;114357;1206;103174;-72
2021/04/13 08:13:27;;;;;;;19.20;8.65;;;;;;;3.82;59.01;99578.95;114409;1206;103085;-73
2021/04/13 08:15:55;;;;;;;19.73;8.83;;;;;;;3.85;58.85;99572.70;114370;1206;103082;-73
2021/04/13 08:18:38;;;;;;;18.35;8.65;;;;;;;3.90;58.68;99575.15;114344;1206;103245;-71
2021/04/13 08:21:26;;;;;;;21.75;10.00;;;;;;;3.94;59.14;99567.10;114401;1205;103156;-73
2021/04/13 08:23:54;;;;;;;18.77;8.67;;;;;;;4.01;58.98;99575.62;114411;1206;103078;-72
2021/04/13 08:26:30;;;;;;;20.20;8.40;;;;;;;4.05;58.98;99579.02;114312;1206;103689;-73
2021/04/13 08:29:35;;;;;;;20.60;8.40;;;;;;;4.07;58.92;99575.39;114220;1206;103130;-71
2021/04/13 08:35:32;;;;;;;17.77;6.43;;;;;;;4.15;59.22;99582.98;114217;1206;103264;-74
2021/04/13 08:37:59;;;;;;;14.60;6.50;;;;;;;4.18;59.39;99588.14;114169;1206;103057;-70
2021/04/13 08:40:37;;;;;;;12.50;5.80;;;;;;;4.20;59.24;99575.77;114146;1206;103149;-72
2021/04/13 08:43:16;;;;;;;14.85;5.75;;;;;;;4.21;58.96;99574.86;114242;1206;103191;-73
2021/04/13 08:45:50;;;;;;;14.00;6.25;;;;;;;4.22;59.32;99576.58;114093;1206;103124;-74
2021/04/13 08:48:32;;;;;;;14.60;6.13;;;;;;;4.24;59.47;99582.64;114123;1205;103165;-73
2021/04/13 08:51:10;;;;;;;15.95;6.30;;;;;;;4.27;59.10;99582.53;114080;1206;103465;-74
2021/04/13 08:53:46;;;;;;;13.20;6.40;;;;;;;4.29;59.15;99583.33;114364;1206;103191;-72
2021/04/13 08:56:25;;;;;;;15.60;6.40;;;;;;;4.29;59.10;99575.42;114305;1206;103082;-74
2021/04/13 08:58:57;;;;;;;12.25;5.65;;;;;;;4.28;59.27;99581.61;114333;1206;103104;-74
2021/04/13 09:01:34;;;;;;;12.70;5.60;;;;;;;4.29;59.08;99579.82;114425;1206;103116;-74
2021/04/13 09:04:13;;;;;;;13.70;5.80;;;;;;;4.25;59.31;99578.25;114355;1206;103143;-76
2021/04/13 09:06:55;;;;;;;13.55;5.80;;;;;;;4.22;59.20;99571.31;114416;1206;103660;-72
2021/04/13 09:09:29;;;;;;;12.40;5.30;;;;;;;4.20;58.96;99582.83;114378;1206;103172;-74
2021/04/13 09:12:17;;;;;;;19.10;6.90;;;;;;;4.14;59.43;99573.38;114378;1206;103082;-73
2021/04/13 09:15:09;;;;;;;15.00;6.05;;;;;;;4.17;59.45;99576.77;114378;1206;103078;-72
2021/04/13 09:17:55;;;;;;;13.10;6.15;;;;;;;4.19;59.26;99578.48;114297;1206;103261;-73
2021/04/13 09:20:43;;;;;;;18.60;6.65;;;;;;;4.23;59.30;99577.45;114367;1206;103166;-75
2021/04/13 09:23:33;;;;;;;15.10;6.70;;;;;;;4.26;59.54;99566.80;114384;1206;103248;-73
2021/04/13 09:26:45;;;;;;;12.80;5.60;;;;;;;4.26;59.40;99574.70;114312;1206;103637;-74
2021/04/13 09:29:31;;;;;;;13.30;6.25;;;;;;;4.30;59.28;99568.38;114242;1206;103095;-73
2021/04/13 09:31:59;;;;;;;13.43;6.83;;;;;;;4.33;59.20;99565.62;114397;1206;103226;-73
2021/04/13 09:35:04;;;;;;;15.90;6.80;;;;;;;4.35;59.63;99560.31;114406;1206;103159;-72
2021/04/13 09:38:00;;;;;;;14.60;6.50;;;;;;;4.36;59.15;99562.03;114100;1206;104608;-72
2021/04/13 09:40:40;;;;;;;15.90;6.55;;;;;;;4.32;59.20;99566.54;114422;1206;103079;-73
2021/04/13 09:43:36;;;;;;;16.40;7.10;;;;;;;4.29;59.92;99559.63;114458;1205;103076;-73
2021/04/13 09:46:14;;;;;;;16.80;7.05;;;;;;;4.28;59.65;99564.97;114425;1206;103130;-73
2021/04/13 09:48:41;;;;;;;16.80;7.10;;;;;;;4.31;59.63;99562.19;114476;1206;103191;-73
2021/04/13 09:51:23;;;;;;;14.10;6.40;;;;;;;4.35;59.88;99557.67;114408;1205;103377;-75
2021/04/13 09:54:27;;;;;;;12.95;6.05;;;;;;;4.37;59.89;99566.38;114423;1206;103081;-71
2021/04/13 09:57:22;;;;;;;14.90;6.50;;;;;;;4.38;60.16;99544.39;114448;1206;103094;-73
2021/04/13 10:00:05;;;;;;;13.73;6.20;;;;;;;4.35;59.89;99552.41;114438;1205;103059;-71
2021/04/13 10:02:46;;;;;;;12.30;5.83;;;;;;;4.38;59.98;99549.66;114432;1206;103598;-71
2021/04/13 10:05:25;;;;;;;13.10;5.55;;;;;;;4.38;59.50;99560.19;114420;1206;103235;-73
2021/04/13 10:08:16;;;;;;;13.15;6.05;;;;;;;4.36;59.73;99559.39;114417;1204;103047;-71
2021/04/13 10:11:08;;;;;;;12.05;6.15;;;;;;;4.34;59.68;99554.17;114459;1205;103095;-72
2021/04/13 10:14:13;;;;;;;13.40;5.90;;;;;;;4.31;59.54;99552.53;114431;1206;103115;-71
2021/04/13 10:17:09;;;;;;;14.20;6.00;;;;;;;4.29;59.52;99558.75;114458;1205;103264;-71
2021/04/13 10:19:58;;;;;;;18.80;7.15;;;;;;;4.27;59.96;99556.19;114445;1206;103088;-73
2021/04/13 10:22:33;;;;;;;19.40;7.80;;;;;;;4.29;59.39;99554.36;114429;1206;103536;-71
2021/04/13 10:25:33;;;;;;;18.10;6.60;;;;;;;4.30;60.14;99552.57;114460;1206;103099;-72
2021/04/13 10:28:15;;;;;;;13.65;5.85;;;;;;;4.31;60.00;99559.55;114454;1206;103057;-71
2021/04/13 10:31:01;;;;;;;13.85;6.15;;;;;;;4.31;60.00;99547.26;114477;1206;103163;-72
2021/04/13 10:33:38;;;;;;;14.40;6.60;;;;;;;4.29;59.52;99548.22;114440;1206;103209;-71
2021/04/13 10:36:47;;;;;;;14.80;6.57;;;;;;;4.26;59.73;99549.21;114409;1206;103070;-73
2021/04/13 10:39:57;;;;;;;19.25;8.35;;;;;;;4.29;59.70;99550.85;114444;1206;104122;-71
2021/04/13 10:42:36;;;;;;;18.10;8.50;;;;;;;4.28;59.69;99546.53;114420;1206;103200;-74
2021/04/13 10:45:40;;;;;;;19.45;7.60;;;;;;;4.30;59.85;99549.94;114407;1206;103096;-71
2021/04/13 10:48:43;;;;;;;17.10;8.00;;;;;;;4.32;59.86;99540.20;114425;1206;103134;-72
2021/04/13 10:51:36;;;;;;;18.90;8.20;;;;;;;4.35;60.19;99547.98;114408;1206;103161;-71
2021/04/13 10:54:41;;;;;;;13.70;6.90;;;;;;;4.38;59.77;99544.39;114389;1206;103118;-73
2021/04/13 10:57:29;;;;;;;16.85;6.95;;;;;;;4.38;60.33;99547.86;114454;1206;103063;-73
2021/04/13 11:00:03;;;;;;;14.30;6.10;;;;;;;4.35;59.63;99549.77;114455;1206;103551;-72
2021/04/13 11:02:45;;;;;;;;;;;;;;;4.29;60.00;99540.31;114420;1214;103182;-73
2021/04/13 11:05:37;;;;;;;14.03;6.77;;;;;;;4.25;59.63;99550.13;114383;1206;103123;-69
2021/04/13 11:08:11;;;;;;;13.70;6.30;;;;;;;4.28;59.99;99543.91;114379;1206;103056;-71
2021/04/13 11:11:12;;;;;;;12.70;6.10;;;;;;;4.29;59.56;99540.31;114416;1206;103240;-71
2021/04/13 11:14:24;;;;;;;15.10;6.75;;;;;;;4.26;59.85;99551.00;114449;1206;103099;-71
2021/04/13 11:17:22;;;;;;;20.40;8.80;;;;;;;4.23;59.91;99541.43;114431;1206;103130;-72
2021/04/13 11:20:13;;;;;;;23.55;10.25;;;;;;;4.25;60.29;99538.75;114430;1206;103091;-73
2021/04/13 11:23:18;;;;;;;22.30;9.30;;;;;;;4.28;59.95;99544.74;114453;1206;103144;-71
2021/04/13 11:26:25;;;;;;;23.60;8.70;;;;;;;4.30;60.16;99535.01;114345;1206;103222;-72
2021/04/13 11:28:58;;;;;;;17.95;8.45;;;;;;;4.33;60.32;99536.65;114429;1205;103054;-70
2021/04/13 11:32:07;;;;;;;16.20;7.10;;;;;;;4.32;60.39;99538.44;114385;1206;103136;-73
2021/04/13 11:35:22;;;;;;;18.40;7.70;;;;;;;4.36;60.04;99533.05;114405;1206;103115;-73
2021/04/13 11:37:57;;;;;;;16.30;7.30;;;;;;;4.35;59.94;99526.91;114220;1206;103171;-73
2021/04/13 11:40:52;;;;;;;19.90;8.40;;;;;;;4.34;60.25;99521.72;114270;1206;103505;-76
2021/04/13 11:43:26;;;;;;;19.40;8.80;;;;;;;4.35;60.19;99511.11;114231;1206;103146;-70
2021/04/13 11:46:15;;;;;;;17.70;7.80;;;;;;;4.37;60.17;99521.60;114279;1206;103105;-71
2021/04/13 11:49:19;;;;;;;20.67;9.07;;;;;;;4.38;60.56;99526.80;114263;1206;103275;-70
2021/04/13 11:51:51;;;;;;;19.37;9.03;;;;;;;4.35;60.53;99523.44;114221;1206;103091;-72
2021/04/13 11:54:43;;;;;;;22.00;9.40;;;;;;;4.34;59.80;99525.20;114243;1206;103065;-72
2021/04/13 11:57:16;;;;;;;23.90;12.10;;;;;;;4.34;60.26;99522.56;114287;1206;103059;-71
2021/04/13 12:00:21;;;;;;;22.15;11.10;;;;;;;4.36;60.10;99523.36;114301;1206;103146;-71
2021/04/13 12:03:07;;;;;;;21.80;10.70;;;;;;;4.38;60.24;99518.89;114259;1206;103152;-70
2021/04/13 12:05:35;;;;;;;20.40;8.70;;;;;;;4.40;60.47;99521.48;114284;1206;103201;-71
2021/04/13 12:08:05;;;;;;;19.05;9.40;;;;;;;4.41;60.19;99523.20;114325;1206;103121;-72
2021/04/13 12:10:32;;;;;;;18.40;9.20;;;;;;;4.40;60.55;99516.21;114298;1206;103110;-71
2021/04/13 12:13:05;;;;;;;18.35;8.10;;;;;;;4.39;60.57;99523.23;114235;1206;103146;-71
2021/04/13 12:15:36;;;;;;;20.35;9.70;;;;;;;4.38;60.19;99525.95;114284;1205;103075;-71
2021/04/13 12:18:34;;;;;;;22.60;9.80;;;;;;;4.36;60.49;99517.25;114364;1206;103131;-70
2021/04/13 12:21:25;;;;;;;22.10;9.80;;;;;;;4.36;60.74;99519.88;114332;1206;103088;-71
2021/04/13 12:23:54;;;;;;;21.60;10.40;;;;;;;4.37;60.51;99527.71;114354;1206;103059;-72
2021/04/13 12:26:44;;;;;;;17.50;8.30;;;;;;;4.37;60.63;99524.23;114246;1206;103108;-72
2021/04/13 12:29:32;;;;;;;22.40;10.45;;;;;;;4.36;60.18;99525.16;114267;1206;103092;-71
2021/04/13 12:32:11;;;;;;;25.30;10.85;;;;;;;4.32;60.59;99514.73;114211;1206;102894;-70